sensor_id;sensor_type;location;lat;lon;timestamp;P1;durP1;ratioP1;P2;durP2;ratioP2
14381;SDS011;7275;50.328;8.720;2024-01-27T00:00:54;4.93;;;1.67;;
14381;SDS011;7275;50.328;8.720;2024-01-27T00:03:22;4.50;;;1.80;;
14381;SDS011;7275;50.328;8.720;2024-01-27T00:05:50;6.93;;;1.80;;
14381;SDS011;7275;50.328;8.720;2024-01-27T00:08:20;6.60;;;1.80;;
14381;SDS011;7275;50.328;8.720;2024-01-27T00:10:48;6.77;;;2.00;;
14381;SDS011;7275;50.328;8.720;2024-01-27T00:13:15;5.77;;;1.93;;
14381;SDS011;7275;50.328;8.720;2024-01-27T00:15:43;6.83;;;1.80;;
14381;SDS011;7275;50.328;8.720;2024-01-27T00:18:11;6.23;;;1.57;;
14381;SDS011;7275;50.328;8.720;2024-01-27T00:20:38;6.47;;;1.80;;
14381;SDS011;7275;50.328;8.720;2024-01-27T00:23:06;5.57;;;1.80;;
14381;SDS011;7275;50.328;8.720;2024-01-27T00:25:35;9.73;;;2.23;;
14381;SDS011;7275;50.328;8.720;2024-01-27T00:28:03;7.83;;;1.73;;
14381;SDS011;7275;50.328;8.720;2024-01-27T00:30:31;7.47;;;2.10;;
14381;SDS011;7275;50.328;8.720;2024-01-27T00:32:58;7.57;;;2.10;;
14381;SDS011;7275;50.328;8.720;2024-01-27T00:35:26;7.43;;;2.20;;
14381;SDS011;7275;50.328;8.720;2024-01-27T00:37:54;7.17;;;1.97;;
14381;SDS011;7275;50.328;8.720;2024-01-27T00:40:21;6.40;;;1.63;;
14381;SDS011;7275;50.328;8.720;2024-01-27T00:42:50;4.70;;;1.83;;
14381;SDS011;7275;50.328;8.720;2024-01-27T00:45:18;7.13;;;2.13;;
14381;SDS011;7275;50.328;8.720;2024-01-27T00:47:48;7.23;;;1.90;;
14381;SDS011;7275;50.328;8.720;2024-01-27T00:50:16;6.97;;;2.00;;
14381;SDS011;7275;50.328;8.720;2024-01-27T00:52:44;5.30;;;1.70;;
14381;SDS011;7275;50.328;8.720;2024-01-27T00:55:11;5.30;;;1.80;;
14381;SDS011;7275;50.328;8.720;2024-01-27T00:57:39;7.03;;;1.73;;
14381;SDS011;7275;50.328;8.720;2024-01-27T01:00:09;4.80;;;1.40;;
14381;SDS011;7275;50.328;8.720;2024-01-27T01:02:38;5.50;;;1.77;;
14381;SDS011;7275;50.328;8.720;2024-01-27T01:05:07;7.47;;;2.00;;
14381;SDS011;7275;50.328;8.720;2024-01-27T01:07:34;6.40;;;1.97;;
14381;SDS011;7275;50.328;8.720;2024-01-27T01:10:02;7.17;;;1.80;;
14381;SDS011;7275;50.328;8.720;2024-01-27T01:12:31;7.30;;;2.20;;
14381;SDS011;7275;50.328;8.720;2024-01-27T01:14:59;7.17;;;1.90;;
14381;SDS011;7275;50.328;8.720;2024-01-27T01:17:27;7.50;;;2.20;;
14381;SDS011;7275;50.328;8.720;2024-01-27T01:19:55;9.20;;;2.10;;
14381;SDS011;7275;50.328;8.720;2024-01-27T01:22:23;6.33;;;1.90;;
14381;SDS011;7275;50.328;8.720;2024-01-27T01:24:50;7.83;;;2.10;;
14381;SDS011;7275;50.328;8.720;2024-01-27T01:27:18;6.00;;;1.90;;
14381;SDS011;7275;50.328;8.720;2024-01-27T01:29:47;8.77;;;2.00;;
14381;SDS011;7275;50.328;8.720;2024-01-27T01:32:14;7.70;;;2.17;;
14381;SDS011;7275;50.328;8.720;2024-01-27T01:34:43;6.87;;;2.00;;
14381;SDS011;7275;50.328;8.720;2024-01-27T01:37:13;7.73;;;2.07;;
14381;SDS011;7275;50.328;8.720;2024-01-27T01:39:40;7.63;;;1.90;;
14381;SDS011;7275;50.328;8.720;2024-01-27T01:42:08;9.47;;;1.90;;
14381;SDS011;7275;50.328;8.720;2024-01-27T01:44:36;6.67;;;2.10;;
14381;SDS011;7275;50.328;8.720;2024-01-27T01:47:03;8.77;;;2.00;;
14381;SDS011;7275;50.328;8.720;2024-01-27T01:49:32;6.90;;;1.90;;
14381;SDS011;7275;50.328;8.720;2024-01-27T01:52:01;6.10;;;1.97;;
14381;SDS011;7275;50.328;8.720;2024-01-27T01:54:29;9.27;;;2.03;;
14381;SDS011;7275;50.328;8.720;2024-01-27T01:56:58;8.80;;;2.20;;
14381;SDS011;7275;50.328;8.720;2024-01-27T01:59:26;9.67;;;2.13;;
14381;SDS011;7275;50.328;8.720;2024-01-27T02:01:53;6.97;;;2.27;;
14381;SDS011;7275;50.328;8.720;2024-01-27T02:04:21;10.67;;;2.13;;
14381;SDS011;7275;50.328;8.720;2024-01-27T02:06:49;8.83;;;2.37;;
14381;SDS011;7275;50.328;8.720;2024-01-27T02:09:18;10.17;;;2.43;;
14381;SDS011;7275;50.328;8.720;2024-01-27T02:11:45;7.13;;;2.00;;
14381;SDS011;7275;50.328;8.720;2024-01-27T02:14:13;7.80;;;2.37;;
14381;SDS011;7275;50.328;8.720;2024-01-27T02:16:41;10.27;;;2.33;;
14381;SDS011;7275;50.328;8.720;2024-01-27T02:19:08;5.57;;;1.87;;
14381;SDS011;7275;50.328;8.720;2024-01-27T02:21:36;8.47;;;2.23;;
14381;SDS011;7275;50.328;8.720;2024-01-27T02:24:07;8.10;;;2.00;;
14381;SDS011;7275;50.328;8.720;2024-01-27T02:26:35;9.87;;;2.10;;
14381;SDS011;7275;50.328;8.720;2024-01-27T02:29:03;8.93;;;2.20;;
14381;SDS011;7275;50.328;8.720;2024-01-27T02:31:31;8.97;;;1.87;;
14381;SDS011;7275;50.328;8.720;2024-01-27T02:33:58;6.93;;;2.23;;
14381;SDS011;7275;50.328;8.720;2024-01-27T02:36:26;6.43;;;2.10;;
14381;SDS011;7275;50.328;8.720;2024-01-27T02:38:54;10.27;;;2.10;;
14381;SDS011;7275;50.328;8.720;2024-01-27T02:41:25;9.10;;;2.27;;
14381;SDS011;7275;50.328;8.720;2024-01-27T02:43:53;5.70;;;1.90;;
14381;SDS011;7275;50.328;8.720;2024-01-27T02:46:20;8.73;;;1.90;;
14381;SDS011;7275;50.328;8.720;2024-01-27T02:48:48;10.00;;;2.03;;
14381;SDS011;7275;50.328;8.720;2024-01-27T02:51:18;7.73;;;2.00;;
14381;SDS011;7275;50.328;8.720;2024-01-27T02:53:46;8.07;;;2.13;;
14381;SDS011;7275;50.328;8.720;2024-01-27T02:56:15;9.57;;;2.50;;
14381;SDS011;7275;50.328;8.720;2024-01-27T02:58:44;7.47;;;2.20;;
14381;SDS011;7275;50.328;8.720;2024-01-27T03:01:12;6.33;;;1.80;;
14381;SDS011;7275;50.328;8.720;2024-01-27T03:03:39;6.33;;;1.83;;
14381;SDS011;7275;50.328;8.720;2024-01-27T03:06:07;5.60;;;1.80;;
14381;SDS011;7275;50.328;8.720;2024-01-27T03:08:35;7.60;;;2.23;;
14381;SDS011;7275;50.328;8.720;2024-01-27T03:11:03;11.73;;;2.27;;
14381;SDS011;7275;50.328;8.720;2024-01-27T03:13:30;6.93;;;2.33;;
14381;SDS011;7275;50.328;8.720;2024-01-27T03:15:59;11.03;;;2.27;;
14381;SDS011;7275;50.328;8.720;2024-01-27T03:18:27;6.57;;;2.30;;
14381;SDS011;7275;50.328;8.720;2024-01-27T03:20:54;9.33;;;2.23;;
14381;SDS011;7275;50.328;8.720;2024-01-27T03:23:22;8.93;;;2.23;;
14381;SDS011;7275;50.328;8.720;2024-01-27T03:25:50;9.37;;;2.10;;
14381;SDS011;7275;50.328;8.720;2024-01-27T03:28:17;8.73;;;2.13;;
14381;SDS011;7275;50.328;8.720;2024-01-27T03:30:45;9.87;;;2.27;;
14381;SDS011;7275;50.328;8.720;2024-01-27T03:33:13;10.63;;;2.17;;
14381;SDS011;7275;50.328;8.720;2024-01-27T03:35:41;10.07;;;2.33;;
14381;SDS011;7275;50.328;8.720;2024-01-27T03:38:09;5.57;;;1.70;;
14381;SDS011;7275;50.328;8.720;2024-01-27T03:40:36;9.50;;;2.00;;
14381;SDS011;7275;50.328;8.720;2024-01-27T03:43:04;7.10;;;2.10;;
14381;SDS011;7275;50.328;8.720;2024-01-27T03:45:31;7.37;;;2.20;;
14381;SDS011;7275;50.328;8.720;2024-01-27T03:47:59;8.27;;;2.03;;
14381;SDS011;7275;50.328;8.720;2024-01-27T03:50:28;8.43;;;2.00;;
14381;SDS011;7275;50.328;8.720;2024-01-27T03:52:56;7.67;;;2.40;;
14381;SDS011;7275;50.328;8.720;2024-01-27T03:55:23;7.57;;;2.00;;
14381;SDS011;7275;50.328;8.720;2024-01-27T03:57:51;7.63;;;1.60;;
14381;SDS011;7275;50.328;8.720;2024-01-27T04:00:19;8.07;;;2.40;;
14381;SDS011;7275;50.328;8.720;2024-01-27T04:02:47;9.20;;;2.23;;
14381;SDS011;7275;50.328;8.720;2024-01-27T04:05:14;8.67;;;1.73;;
14381;SDS011;7275;50.328;8.720;2024-01-27T04:07:43;11.37;;;2.20;;
14381;SDS011;7275;50.328;8.720;2024-01-27T04:10:11;8.30;;;2.33;;
14381;SDS011;7275;50.328;8.720;2024-01-27T04:12:39;10.47;;;2.10;;
14381;SDS011;7275;50.328;8.720;2024-01-27T04:15:06;9.07;;;2.50;;
14381;SDS011;7275;50.328;8.720;2024-01-27T04:17:35;7.67;;;1.70;;
14381;SDS011;7275;50.328;8.720;2024-01-27T04:20:02;8.13;;;2.03;;
14381;SDS011;7275;50.328;8.720;2024-01-27T04:22:30;9.03;;;2.00;;
14381;SDS011;7275;50.328;8.720;2024-01-27T04:24:59;8.93;;;2.00;;
14381;SDS011;7275;50.328;8.720;2024-01-27T04:27:27;5.63;;;1.80;;
14381;SDS011;7275;50.328;8.720;2024-01-27T04:29:55;6.73;;;2.00;;
14381;SDS011;7275;50.328;8.720;2024-01-27T04:32:23;11.10;;;2.33;;
14381;SDS011;7275;50.328;8.720;2024-01-27T04:34:51;10.67;;;2.20;;
14381;SDS011;7275;50.328;8.720;2024-01-27T04:37:19;7.57;;;2.13;;
14381;SDS011;7275;50.328;8.720;2024-01-27T04:39:46;8.10;;;1.97;;
14381;SDS011;7275;50.328;8.720;2024-01-27T04:42:15;6.63;;;2.20;;
14381;SDS011;7275;50.328;8.720;2024-01-27T04:44:44;6.87;;;1.90;;
14381;SDS011;7275;50.328;8.720;2024-01-27T04:47:11;6.47;;;2.00;;
14381;SDS011;7275;50.328;8.720;2024-01-27T04:49:39;10.87;;;1.87;;
14381;SDS011;7275;50.328;8.720;2024-01-27T04:52:07;8.73;;;1.87;;
14381;SDS011;7275;50.328;8.720;2024-01-27T04:54:35;6.47;;;2.00;;
14381;SDS011;7275;50.328;8.720;2024-01-27T04:57:03;11.13;;;2.20;;
14381;SDS011;7275;50.328;8.720;2024-01-27T04:59:32;7.97;;;2.10;;
14381;SDS011;7275;50.328;8.720;2024-01-27T05:02:00;6.80;;;1.80;;
14381;SDS011;7275;50.328;8.720;2024-01-27T05:04:27;6.30;;;1.77;;
14381;SDS011;7275;50.328;8.720;2024-01-27T05:06:55;7.73;;;2.10;;
14381;SDS011;7275;50.328;8.720;2024-01-27T05:09:23;9.03;;;2.00;;
14381;SDS011;7275;50.328;8.720;2024-01-27T05:11:50;8.20;;;1.97;;
14381;SDS011;7275;50.328;8.720;2024-01-27T05:14:19;7.43;;;1.87;;
14381;SDS011;7275;50.328;8.720;2024-01-27T05:16:48;8.83;;;2.13;;
14381;SDS011;7275;50.328;8.720;2024-01-27T05:19:16;6.97;;;2.00;;
14381;SDS011;7275;50.328;8.720;2024-01-27T05:21:44;8.37;;;1.93;;
14381;SDS011;7275;50.328;8.720;2024-01-27T05:24:12;6.67;;;1.80;;
14381;SDS011;7275;50.328;8.720;2024-01-27T05:26:39;7.63;;;2.20;;
14381;SDS011;7275;50.328;8.720;2024-01-27T05:29:07;7.57;;;1.73;;
14381;SDS011;7275;50.328;8.720;2024-01-27T05:31:35;7.40;;;1.90;;
14381;SDS011;7275;50.328;8.720;2024-01-27T05:34:04;8.30;;;2.00;;
14381;SDS011;7275;50.328;8.720;2024-01-27T05:36:32;5.30;;;1.70;;
14381;SDS011;7275;50.328;8.720;2024-01-27T05:38:59;7.43;;;1.77;;
14381;SDS011;7275;50.328;8.720;2024-01-27T05:41:29;6.10;;;1.73;;
14381;SDS011;7275;50.328;8.720;2024-01-27T05:43:57;8.40;;;1.83;;
14381;SDS011;7275;50.328;8.720;2024-01-27T05:46:24;6.57;;;1.70;;
14381;SDS011;7275;50.328;8.720;2024-01-27T05:48:52;8.83;;;1.80;;
14381;SDS011;7275;50.328;8.720;2024-01-27T05:51:25;9.13;;;2.03;;
14381;SDS011;7275;50.328;8.720;2024-01-27T05:53:53;6.67;;;1.70;;
14381;SDS011;7275;50.328;8.720;2024-01-27T05:56:21;4.67;;;1.60;;
14381;SDS011;7275;50.328;8.720;2024-01-27T05:58:48;7.27;;;2.20;;
14381;SDS011;7275;50.328;8.720;2024-01-27T06:01:17;8.00;;;1.80;;
14381;SDS011;7275;50.328;8.720;2024-01-27T06:03:45;7.17;;;1.70;;
14381;SDS011;7275;50.328;8.720;2024-01-27T06:06:13;8.33;;;1.80;;
14381;SDS011;7275;50.328;8.720;2024-01-27T06:08:42;6.53;;;1.97;;
14381;SDS011;7275;50.328;8.720;2024-01-27T06:11:09;8.57;;;1.87;;
14381;SDS011;7275;50.328;8.720;2024-01-27T06:13:37;9.60;;;2.17;;
14381;SDS011;7275;50.328;8.720;2024-01-27T06:16:07;9.30;;;1.93;;
14381;SDS011;7275;50.328;8.720;2024-01-27T06:18:36;7.93;;;1.70;;
14381;SDS011;7275;50.328;8.720;2024-01-27T06:21:05;7.87;;;2.20;;
14381;SDS011;7275;50.328;8.720;2024-01-27T06:23:33;7.87;;;2.07;;
14381;SDS011;7275;50.328;8.720;2024-01-27T06:26:05;7.50;;;1.97;;
14381;SDS011;7275;50.328;8.720;2024-01-27T06:28:33;9.10;;;1.70;;
14381;SDS011;7275;50.328;8.720;2024-01-27T06:31:01;7.17;;;1.70;;
14381;SDS011;7275;50.328;8.720;2024-01-27T06:33:28;6.50;;;2.00;;
14381;SDS011;7275;50.328;8.720;2024-01-27T06:35:56;6.80;;;1.90;;
14381;SDS011;7275;50.328;8.720;2024-01-27T06:38:24;6.53;;;1.93;;
14381;SDS011;7275;50.328;8.720;2024-01-27T06:40:53;7.03;;;1.53;;
14381;SDS011;7275;50.328;8.720;2024-01-27T06:43:22;5.10;;;1.77;;
14381;SDS011;7275;50.328;8.720;2024-01-27T06:45:50;6.90;;;1.83;;
14381;SDS011;7275;50.328;8.720;2024-01-27T06:48:17;7.23;;;1.83;;
14381;SDS011;7275;50.328;8.720;2024-01-27T06:50:45;5.20;;;1.80;;
14381;SDS011;7275;50.328;8.720;2024-01-27T06:53:13;9.57;;;2.43;;
14381;SDS011;7275;50.328;8.720;2024-01-27T06:55:40;7.47;;;1.83;;
14381;SDS011;7275;50.328;8.720;2024-01-27T06:58:09;8.57;;;2.50;;
14381;SDS011;7275;50.328;8.720;2024-01-27T07:00:38;7.07;;;2.10;;
14381;SDS011;7275;50.328;8.720;2024-01-27T07:03:07;8.70;;;1.97;;
14381;SDS011;7275;50.328;8.720;2024-01-27T07:05:39;8.10;;;2.07;;
14381;SDS011;7275;50.328;8.720;2024-01-27T07:08:07;7.77;;;2.23;;
14381;SDS011;7275;50.328;8.720;2024-01-27T07:10:35;8.43;;;2.13;;
14381;SDS011;7275;50.328;8.720;2024-01-27T07:13:03;9.70;;;2.30;;
14381;SDS011;7275;50.328;8.720;2024-01-27T07:15:32;7.33;;;2.00;;
14381;SDS011;7275;50.328;8.720;2024-01-27T07:18:01;9.57;;;2.17;;
14381;SDS011;7275;50.328;8.720;2024-01-27T07:20:28;7.80;;;2.30;;
14381;SDS011;7275;50.328;8.720;2024-01-27T07:22:56;4.77;;;1.73;;
14381;SDS011;7275;50.328;8.720;2024-01-27T07:25:24;7.93;;;1.90;;
14381;SDS011;7275;50.328;8.720;2024-01-27T07:27:51;10.30;;;2.27;;
14381;SDS011;7275;50.328;8.720;2024-01-27T07:30:19;4.73;;;1.70;;
14381;SDS011;7275;50.328;8.720;2024-01-27T07:32:46;9.70;;;2.40;;
14381;SDS011;7275;50.328;8.720;2024-01-27T07:35:15;9.03;;;2.20;;
14381;SDS011;7275;50.328;8.720;2024-01-27T07:37:43;8.73;;;2.07;;
14381;SDS011;7275;50.328;8.720;2024-01-27T07:40:11;7.27;;;1.90;;
14381;SDS011;7275;50.328;8.720;2024-01-27T07:42:45;8.17;;;1.80;;
14381;SDS011;7275;50.328;8.720;2024-01-27T07:45:15;8.17;;;1.83;;
14381;SDS011;7275;50.328;8.720;2024-01-27T07:47:43;4.20;;;1.70;;
14381;SDS011;7275;50.328;8.720;2024-01-27T07:50:12;5.60;;;1.90;;
14381;SDS011;7275;50.328;8.720;2024-01-27T07:52:43;4.97;;;1.80;;
14381;SDS011;7275;50.328;8.720;2024-01-27T07:55:14;8.17;;;1.90;;
14381;SDS011;7275;50.328;8.720;2024-01-27T07:57:43;6.53;;;2.03;;
14381;SDS011;7275;50.328;8.720;2024-01-27T08:00:11;9.83;;;2.27;;
14381;SDS011;7275;50.328;8.720;2024-01-27T08:02:42;9.27;;;2.57;;
14381;SDS011;7275;50.328;8.720;2024-01-27T08:05:10;6.40;;;2.70;;
14381;SDS011;7275;50.328;8.720;2024-01-27T08:07:44;10.37;;;4.23;;
14381;SDS011;7275;50.328;8.720;2024-01-27T08:10:12;14.53;;;7.80;;
14381;SDS011;7275;50.328;8.720;2024-01-27T08:12:39;16.60;;;6.80;;
14381;SDS011;7275;50.328;8.720;2024-01-27T08:15:07;14.67;;;6.67;;
14381;SDS011;7275;50.328;8.720;2024-01-27T08:17:35;13.37;;;6.90;;
14381;SDS011;7275;50.328;8.720;2024-01-27T08:20:03;14.93;;;6.10;;
14381;SDS011;7275;50.328;8.720;2024-01-27T08:22:31;8.77;;;4.97;;
14381;SDS011;7275;50.328;8.720;2024-01-27T08:25:00;10.33;;;5.00;;
14381;SDS011;7275;50.328;8.720;2024-01-27T08:27:28;10.63;;;4.73;;
14381;SDS011;7275;50.328;8.720;2024-01-27T08:29:55;9.30;;;4.50;;
14381;SDS011;7275;50.328;8.720;2024-01-27T08:32:24;11.80;;;4.57;;
14381;SDS011;7275;50.328;8.720;2024-01-27T08:34:51;9.30;;;3.60;;
14381;SDS011;7275;50.328;8.720;2024-01-27T08:37:19;8.57;;;3.40;;
14381;SDS011;7275;50.328;8.720;2024-01-27T08:39:48;9.27;;;3.37;;
14381;SDS011;7275;50.328;8.720;2024-01-27T08:42:18;7.20;;;3.17;;
14381;SDS011;7275;50.328;8.720;2024-01-27T08:44:46;10.23;;;3.50;;
14381;SDS011;7275;50.328;8.720;2024-01-27T08:47:13;7.97;;;3.10;;
14381;SDS011;7275;50.328;8.720;2024-01-27T08:49:41;10.77;;;3.40;;
14381;SDS011;7275;50.328;8.720;2024-01-27T08:52:09;8.63;;;3.20;;
14381;SDS011;7275;50.328;8.720;2024-01-27T08:54:37;7.30;;;3.13;;
14381;SDS011;7275;50.328;8.720;2024-01-27T08:57:04;7.43;;;3.10;;
14381;SDS011;7275;50.328;8.720;2024-01-27T08:59:33;7.03;;;3.50;;
14381;SDS011;7275;50.328;8.720;2024-01-27T09:02:02;7.27;;;3.40;;
14381;SDS011;7275;50.328;8.720;2024-01-27T09:04:30;8.57;;;3.43;;
14381;SDS011;7275;50.328;8.720;2024-01-27T09:06:57;7.63;;;3.40;;
14381;SDS011;7275;50.328;8.720;2024-01-27T09:09:25;7.60;;;3.43;;
14381;SDS011;7275;50.328;8.720;2024-01-27T09:11:55;8.40;;;3.43;;
14381;SDS011;7275;50.328;8.720;2024-01-27T09:14:23;8.57;;;3.67;;
14381;SDS011;7275;50.328;8.720;2024-01-27T09:16:52;8.40;;;3.57;;
14381;SDS011;7275;50.328;8.720;2024-01-27T09:19:20;7.13;;;3.07;;
14381;SDS011;7275;50.328;8.720;2024-01-27T09:21:47;6.93;;;3.20;;
14381;SDS011;7275;50.328;8.720;2024-01-27T09:24:15;10.27;;;3.47;;
14381;SDS011;7275;50.328;8.720;2024-01-27T09:26:42;7.13;;;3.50;;
14381;SDS011;7275;50.328;8.720;2024-01-27T09:29:10;7.00;;;3.13;;
14381;SDS011;7275;50.328;8.720;2024-01-27T09:31:38;7.50;;;3.40;;
14381;SDS011;7275;50.328;8.720;2024-01-27T09:34:07;9.00;;;3.73;;
14381;SDS011;7275;50.328;8.720;2024-01-27T09:36:35;8.23;;;3.53;;
14381;SDS011;7275;50.328;8.720;2024-01-27T09:39:03;8.50;;;3.10;;
14381;SDS011;7275;50.328;8.720;2024-01-27T09:41:31;7.20;;;3.30;;
14381;SDS011;7275;50.328;8.720;2024-01-27T09:43:59;6.33;;;3.17;;
14381;SDS011;7275;50.328;8.720;2024-01-27T09:46:29;7.80;;;3.50;;
14381;SDS011;7275;50.328;8.720;2024-01-27T09:48:58;8.00;;;3.43;;
14381;SDS011;7275;50.328;8.720;2024-01-27T09:51:27;7.23;;;3.27;;
14381;SDS011;7275;50.328;8.720;2024-01-27T09:53:56;5.57;;;3.17;;
14381;SDS011;7275;50.328;8.720;2024-01-27T09:56:24;6.53;;;3.40;;
14381;SDS011;7275;50.328;8.720;2024-01-27T09:58:52;5.70;;;2.90;;
14381;SDS011;7275;50.328;8.720;2024-01-27T10:01:21;7.00;;;3.50;;
14381;SDS011;7275;50.328;8.720;2024-01-27T10:03:51;5.80;;;3.20;;
14381;SDS011;7275;50.328;8.720;2024-01-27T10:06:22;7.10;;;3.22;;
14381;SDS011;7275;50.328;8.720;2024-01-27T10:08:55;5.70;;;3.10;;
14381;SDS011;7275;50.328;8.720;2024-01-27T10:11:23;7.15;;;3.72;;
14381;SDS011;7275;50.328;8.720;2024-01-27T10:13:54;7.72;;;3.38;;
14381;SDS011;7275;50.328;8.720;2024-01-27T10:16:25;7.60;;;3.20;;
14381;SDS011;7275;50.328;8.720;2024-01-27T10:19:01;6.68;;;3.30;;
14381;SDS011;7275;50.328;8.720;2024-01-27T10:21:30;6.22;;;3.20;;
14381;SDS011;7275;50.328;8.720;2024-01-27T10:23:59;6.45;;;3.20;;
14381;SDS011;7275;50.328;8.720;2024-01-27T10:26:30;6.85;;;3.05;;
14381;SDS011;7275;50.328;8.720;2024-01-27T10:29:01;7.28;;;3.40;;
14381;SDS011;7275;50.328;8.720;2024-01-27T10:31:29;7.47;;;3.03;;
14381;SDS011;7275;50.328;8.720;2024-01-27T10:34:01;11.70;;;3.33;;
14381;SDS011;7275;50.328;8.720;2024-01-27T10:36:40;8.50;;;3.05;;
14381;SDS011;7275;50.328;8.720;2024-01-27T10:39:17;9.15;;;3.47;;
14381;SDS011;7275;50.328;8.720;2024-01-27T10:41:47;6.63;;;2.92;;
14381;SDS011;7275;50.328;8.720;2024-01-27T10:44:15;7.35;;;3.17;;
14381;SDS011;7275;50.328;8.720;2024-01-27T10:46:44;7.93;;;3.20;;
14381;SDS011;7275;50.328;8.720;2024-01-27T10:49:15;7.50;;;3.33;;
14381;SDS011;7275;50.328;8.720;2024-01-27T10:51:45;7.63;;;3.17;;
14381;SDS011;7275;50.328;8.720;2024-01-27T10:54:23;9.48;;;3.70;;
14381;SDS011;7275;50.328;8.720;2024-01-27T10:56:58;8.60;;;3.47;;
14381;SDS011;7275;50.328;8.720;2024-01-27T10:59:32;8.70;;;3.58;;
14381;SDS011;7275;50.328;8.720;2024-01-27T11:02:02;7.35;;;3.63;;
14381;SDS011;7275;50.328;8.720;2024-01-27T11:04:31;8.88;;;3.97;;
14381;SDS011;7275;50.328;8.720;2024-01-27T11:07:02;8.52;;;3.45;;
14381;SDS011;7275;50.328;8.720;2024-01-27T11:09:32;6.78;;;3.33;;
14381;SDS011;7275;50.328;8.720;2024-01-27T11:12:02;9.43;;;4.10;;
14381;SDS011;7275;50.328;8.720;2024-01-27T11:14:31;7.35;;;3.72;;
14381;SDS011;7275;50.328;8.720;2024-01-27T11:16:58;8.55;;;4.30;;
14381;SDS011;7275;50.328;8.720;2024-01-27T11:19:26;9.52;;;4.20;;
14381;SDS011;7275;50.328;8.720;2024-01-27T11:22:00;9.18;;;3.65;;
14381;SDS011;7275;50.328;8.720;2024-01-27T11:24:29;7.95;;;3.90;;
14381;SDS011;7275;50.328;8.720;2024-01-27T11:27:02;9.13;;;3.55;;
14381;SDS011;7275;50.328;8.720;2024-01-27T11:29:30;6.45;;;3.40;;
14381;SDS011;7275;50.328;8.720;2024-01-27T11:31:59;9.80;;;3.40;;
14381;SDS011;7275;50.328;8.720;2024-01-27T11:34:30;9.55;;;3.70;;
14381;SDS011;7275;50.328;8.720;2024-01-27T11:37:12;6.75;;;3.40;;
14381;SDS011;7275;50.328;8.720;2024-01-27T11:39:41;9.73;;;3.83;;
14381;SDS011;7275;50.328;8.720;2024-01-27T11:42:10;7.70;;;3.10;;
14381;SDS011;7275;50.328;8.720;2024-01-27T11:44:40;6.45;;;3.40;;
14381;SDS011;7275;50.328;8.720;2024-01-27T11:47:13;8.60;;;3.53;;
14381;SDS011;7275;50.328;8.720;2024-01-27T11:49:42;7.60;;;4.13;;
14381;SDS011;7275;50.328;8.720;2024-01-27T11:52:11;7.45;;;3.72;;
14381;SDS011;7275;50.328;8.720;2024-01-27T11:54:39;9.13;;;3.90;;
14381;SDS011;7275;50.328;8.720;2024-01-27T11:57:06;7.88;;;3.90;;
14381;SDS011;7275;50.328;8.720;2024-01-27T11:59:35;7.47;;;3.53;;
14381;SDS011;7275;50.328;8.720;2024-01-27T12:02:03;6.57;;;3.63;;
14381;SDS011;7275;50.328;8.720;2024-01-27T12:04:30;10.45;;;3.65;;
14381;SDS011;7275;50.328;8.720;2024-01-27T12:06:58;7.75;;;3.38;;
14381;SDS011;7275;50.328;8.720;2024-01-27T12:09:26;8.85;;;3.58;;
14381;SDS011;7275;50.328;8.720;2024-01-27T12:11:54;6.78;;;3.10;;
14381;SDS011;7275;50.328;8.720;2024-01-27T12:14:21;7.10;;;3.40;;
14381;SDS011;7275;50.328;8.720;2024-01-27T12:16:51;6.60;;;3.38;;
14381;SDS011;7275;50.328;8.720;2024-01-27T12:19:19;7.32;;;3.67;;
14381;SDS011;7275;50.328;8.720;2024-01-27T12:21:47;7.35;;;3.60;;
14381;SDS011;7275;50.328;8.720;2024-01-27T12:24:15;8.07;;;3.72;;
14381;SDS011;7275;50.328;8.720;2024-01-27T12:26:48;9.05;;;3.50;;
14381;SDS011;7275;50.328;8.720;2024-01-27T12:29:15;7.88;;;3.50;;
14381;SDS011;7275;50.328;8.720;2024-01-27T12:31:43;8.85;;;3.53;;
14381;SDS011;7275;50.328;8.720;2024-01-27T12:34:13;7.28;;;3.10;;
14381;SDS011;7275;50.328;8.720;2024-01-27T12:36:42;6.28;;;3.15;;
14381;SDS011;7275;50.328;8.720;2024-01-27T12:39:10;8.77;;;3.58;;
14381;SDS011;7275;50.328;8.720;2024-01-27T12:41:38;11.48;;;3.72;;
14381;SDS011;7275;50.328;8.720;2024-01-27T12:44:06;8.25;;;3.50;;
14381;SDS011;7275;50.328;8.720;2024-01-27T12:46:33;8.43;;;3.40;;
14381;SDS011;7275;50.328;8.720;2024-01-27T12:49:01;8.95;;;3.20;;
14381;SDS011;7275;50.328;8.720;2024-01-27T12:51:31;8.40;;;3.33;;
14381;SDS011;7275;50.328;8.720;2024-01-27T12:53:59;7.55;;;3.50;;
14381;SDS011;7275;50.328;8.720;2024-01-27T12:56:26;8.57;;;3.28;;
14381;SDS011;7275;50.328;8.720;2024-01-27T12:58:54;7.88;;;3.60;;
14381;SDS011;7275;50.328;8.720;2024-01-27T13:01:22;8.25;;;3.53;;
14381;SDS011;7275;50.328;8.720;2024-01-27T13:03:49;5.35;;;2.92;;
14381;SDS011;7275;50.328;8.720;2024-01-27T13:06:18;7.53;;;2.80;;
14381;SDS011;7275;50.328;8.720;2024-01-27T13:08:48;7.05;;;3.05;;
14381;SDS011;7275;50.328;8.720;2024-01-27T13:11:16;6.22;;;2.92;;
14381;SDS011;7275;50.328;8.720;2024-01-27T13:13:44;8.70;;;3.30;;
14381;SDS011;7275;50.328;8.720;2024-01-27T13:16:16;8.38;;;3.40;;
14381;SDS011;7275;50.328;8.720;2024-01-27T13:18:43;7.07;;;3.40;;
14381;SDS011;7275;50.328;8.720;2024-01-27T13:21:12;7.55;;;3.30;;
14381;SDS011;7275;50.328;8.720;2024-01-27T13:23:40;9.95;;;3.13;;
14381;SDS011;7275;50.328;8.720;2024-01-27T13:26:09;6.38;;;2.97;;
14381;SDS011;7275;50.328;8.720;2024-01-27T13:28:45;7.80;;;2.78;;
14381;SDS011;7275;50.328;8.720;2024-01-27T13:31:12;7.90;;;3.10;;
14381;SDS011;7275;50.328;8.720;2024-01-27T13:33:40;6.25;;;2.80;;
14381;SDS011;7275;50.328;8.720;2024-01-27T13:36:08;6.80;;;2.90;;
14381;SDS011;7275;50.328;8.720;2024-01-27T13:38:35;8.88;;;3.22;;
14381;SDS011;7275;50.328;8.720;2024-01-27T13:41:04;6.15;;;2.60;;
14381;SDS011;7275;50.328;8.720;2024-01-27T13:43:32;6.57;;;2.63;;
14381;SDS011;7275;50.328;8.720;2024-01-27T13:46:00;6.45;;;2.67;;
14381;SDS011;7275;50.328;8.720;2024-01-27T13:48:28;8.60;;;3.10;;
14381;SDS011;7275;50.328;8.720;2024-01-27T13:50:56;7.13;;;2.90;;
14381;SDS011;7275;50.328;8.720;2024-01-27T13:53:23;7.18;;;3.03;;
14381;SDS011;7275;50.328;8.720;2024-01-27T13:56:08;9.73;;;2.80;;
14381;SDS011;7275;50.328;8.720;2024-01-27T13:58:37;6.43;;;2.50;;
14381;SDS011;7275;50.328;8.720;2024-01-27T14:01:05;9.27;;;3.10;;
14381;SDS011;7275;50.328;8.720;2024-01-27T14:03:33;7.40;;;2.72;;
14381;SDS011;7275;50.328;8.720;2024-01-27T14:06:00;7.60;;;2.72;;
14381;SDS011;7275;50.328;8.720;2024-01-27T14:08:28;6.93;;;2.40;;
14381;SDS011;7275;50.328;8.720;2024-01-27T14:10:56;7.90;;;2.70;;
14381;SDS011;7275;50.328;8.720;2024-01-27T14:13:23;7.00;;;2.60;;
14381;SDS011;7275;50.328;8.720;2024-01-27T14:15:52;8.70;;;2.47;;
14381;SDS011;7275;50.328;8.720;2024-01-27T14:18:19;6.38;;;2.40;;
14381;SDS011;7275;50.328;8.720;2024-01-27T14:20:48;8.10;;;3.00;;
14381;SDS011;7275;50.328;8.720;2024-01-27T14:23:16;8.40;;;2.58;;
14381;SDS011;7275;50.328;8.720;2024-01-27T14:25:44;7.13;;;2.45;;
14381;SDS011;7275;50.328;8.720;2024-01-27T14:28:25;5.95;;;2.15;;
14381;SDS011;7275;50.328;8.720;2024-01-27T14:30:57;6.35;;;2.20;;
14381;SDS011;7275;50.328;8.720;2024-01-27T14:33:25;8.57;;;2.60;;
14381;SDS011;7275;50.328;8.720;2024-01-27T14:35:53;6.78;;;2.25;;
14381;SDS011;7275;50.328;8.720;2024-01-27T14:38:20;7.50;;;2.33;;
14381;SDS011;7275;50.328;8.720;2024-01-27T14:40:48;4.40;;;1.98;;
14381;SDS011;7275;50.328;8.720;2024-01-27T14:43:15;5.60;;;2.33;;
14381;SDS011;7275;50.328;8.720;2024-01-27T14:45:44;4.75;;;2.10;;
14381;SDS011;7275;50.328;8.720;2024-01-27T14:48:15;7.35;;;2.58;;
14381;SDS011;7275;50.328;8.720;2024-01-27T14:50:45;5.90;;;2.38;;
14381;SDS011;7275;50.328;8.720;2024-01-27T14:53:18;8.03;;;2.33;;
14381;SDS011;7275;50.328;8.720;2024-01-27T14:55:46;4.67;;;1.87;;
14381;SDS011;7275;50.328;8.720;2024-01-27T14:58:13;6.63;;;2.40;;
14381;SDS011;7275;50.328;8.720;2024-01-27T15:00:41;7.07;;;2.27;;
14381;SDS011;7275;50.328;8.720;2024-01-27T15:03:09;7.37;;;2.70;;
14381;SDS011;7275;50.328;8.720;2024-01-27T15:05:39;6.43;;;2.30;;
14381;SDS011;7275;50.328;8.720;2024-01-27T15:08:07;7.67;;;2.50;;